Time;durP1;ratioP1;P1;durP2;ratioP2;P2;SDS_P1;SDS_P2;PMS_P1;PMS_P2;Temp;Humidity;BMP_temperature;BMP_pressure;BME280_temperature;BME280_humidity;BME280_pressure;Samples;Min_cycle;Max_cycle;Signal;HPM_P1;HPM_P2
2023/12/05 00:02:04;;;;;;;26.42;11.55;;;-3.60;99.90;;;;;;5040552;28;20114;-73
2023/12/05 00:04:29;;;;;;;20.95;9.15;;;-3.60;99.90;;;;;;5044677;28;20120;-73
2023/12/05 00:06:55;;;;;;;21.35;10.38;;;-3.60;99.90;;;;;;5006125;28;1092040;-73
2023/12/05 00:09:21;;;;;;;28.73;12.20;;;-3.60;99.90;;;;;;5041589;28;20029;-74
2023/12/05 00:11:46;;;;;;;24.40;11.30;;;-3.60;99.90;;;;;;5045662;28;20115;-73
2023/12/05 00:14:12;;;;;;;25.90;12.35;;;-3.60;99.90;;;;;;5046966;28;20033;-74
2023/12/05 00:16:38;;;;;;;26.83;12.40;;;-3.60;99.90;;;;;;5042344;28;20029;-74
2023/12/05 00:19:04;;;;;;;26.08;11.48;;;-3.60;99.90;;;;;;5046684;28;20029;-74
2023/12/05 00:21:29;;;;;;;28.60;12.20;;;-3.60;99.90;;;;;;5055145;28;20136;-75
2023/12/05 00:23:55;;;;;;;27.30;12.80;;;-3.60;99.90;;;;;;5053679;28;20037;-74
2023/12/05 00:26:21;;;;;;;22.80;10.82;;;-3.60;99.90;;;;;;5040012;28;20055;-74
2023/12/05 00:28:47;;;;;;;26.10;12.57;;;-3.60;99.90;;;;;;5041055;28;20383;-73
2023/12/05 00:31:13;;;;;;;23.63;11.27;;;-3.60;99.90;;;;;;5051946;28;20037;-74
2023/12/05 00:33:38;;;;;;;29.77;13.05;;;-3.60;99.90;;;;;;5033404;28;20128;-74
2023/12/05 00:36:04;;;;;;;26.88;12.40;;;-3.60;99.90;;;;;;5029288;28;20033;-75
2023/12/05 00:38:30;;;;;;;25.20;12.05;;;-3.60;99.90;;;;;;5049269;28;20120;-75
2023/12/05 00:40:59;;;;;;;23.10;11.70;;;-3.60;99.90;;;;;;5044033;28;20171;-73
2023/12/05 00:43:25;;;;;;;28.25;11.60;;;-3.60;99.90;;;;;;5042797;28;20048;-74
2023/12/05 00:45:50;;;;;;;26.00;12.25;;;-3.60;99.90;;;;;;5041216;28;20021;-73
2023/12/05 00:48:16;;;;;;;26.20;12.13;;;-3.60;99.90;;;;;;5038249;28;20754;-75
2023/12/05 00:50:42;;;;;;;27.98;13.57;;;-3.60;99.90;;;;;;5046169;28;20048;-74
2023/12/05 00:53:07;;;;;;;23.65;10.90;;;-3.70;99.90;;;;;;5043317;28;20095;-74
2023/12/05 00:55:35;;;;;;;26.00;11.95;;;-3.60;99.90;;;;;;5043482;28;20037;-74
2023/12/05 00:58:01;;;;;;;22.33;11.38;;;-3.60;99.90;;;;;;5042295;28;20045;-74
2023/12/05 01:00:27;;;;;;;28.15;12.15;;;-3.60;99.90;;;;;;5062784;28;20501;-74
2023/12/05 01:02:53;;;;;;;32.47;12.75;;;-3.70;99.90;;;;;;5044032;28;20095;-75
2023/12/05 01:05:18;;;;;;;30.42;13.57;;;-3.70;99.90;;;;;;5040760;28;20120;-75
2023/12/05 01:07:44;;;;;;;28.65;13.18;;;-3.70;99.90;;;;;;5040450;28;20381;-75
2023/12/05 01:10:10;;;;;;;32.47;14.13;;;-3.70;99.90;;;;;;5049853;28;20462;-75
2023/12/05 01:12:36;;;;;;;26.15;12.65;;;-3.70;99.90;;;;;;5045571;28;20033;-75
2023/12/05 01:15:02;;;;;;;28.38;12.40;;;-3.70;99.90;;;;;;5043778;28;20495;-74
2023/12/05 01:17:28;;;;;;;26.88;12.35;;;-3.70;99.90;;;;;;5045962;28;20158;-75
2023/12/05 01:19:53;;;;;;;27.85;12.05;;;-3.70;99.90;;;;;;5043858;28;20029;-75
2023/12/05 01:22:19;;;;;;;25.00;12.45;;;-3.70;99.90;;;;;;5042126;28;20411;-75
2023/12/05 01:24:55;;;;;;;29.35;12.95;;;-3.70;99.90;;;;;;5050761;28;20033;-75
2023/12/05 01:27:22;;;;;;;29.35;13.20;;;-3.60;99.90;;;;;;5046329;28;20035;-75
2023/12/05 01:29:47;;;;;;;28.10;13.05;;;-3.70;99.90;;;;;;5046570;28;20032;-75
2023/12/05 01:32:14;;;;;;;29.05;13.00;;;-3.60;99.90;;;;;;5044907;28;20120;-75
2023/12/05 01:34:40;;;;;;;28.40;13.32;;;-3.60;99.90;;;;;;5042936;28;20040;-74
2023/12/05 01:37:06;;;;;;;28.17;12.07;;;-3.50;99.90;;;;;;5043549;28;20040;-74
2023/12/05 01:39:31;;;;;;;30.27;13.55;;;-3.50;99.90;;;;;;5046080;28;20033;-76
2023/12/05 01:41:57;;;;;;;29.35;13.02;;;-3.50;99.90;;;;;;5045835;28;20112;-76
2023/12/05 01:44:23;;;;;;;30.73;13.85;;;-3.50;99.90;;;;;;5039700;28;20386;-76
2023/12/05 01:46:49;;;;;;;26.95;12.95;;;-3.50;99.90;;;;;;5041273;28;20124;-76
2023/12/05 01:49:17;;;;;;;32.85;13.68;;;-3.50;99.90;;;;;;5046509;28;20074;-76
2023/12/05 01:51:44;;;;;;;31.88;13.02;;;-3.50;99.90;;;;;;5044875;28;20579;-75
2023/12/05 01:54:09;;;;;;;29.58;13.40;;;-3.50;99.90;;;;;;5043745;28;20150;-76
2023/12/05 01:56:35;;;;;;;34.30;13.55;;;-3.50;99.90;;;;;;5042181;28;20161;-76
2023/12/05 01:59:02;;;;;;;32.15;13.70;;;-3.50;99.90;;;;;;5042369;28;20052;-76
2023/12/05 02:01:28;;;;;;;30.40;14.38;;;-3.60;99.90;;;;;;5041566;28;20032;-76
2023/12/05 02:03:54;;;;;;;29.83;14.80;;;-3.60;99.90;;;;;;5037349;28;20413;-76
2023/12/05 02:06:21;;;;;;;31.98;14.23;;;-3.70;99.90;;;;;;5047774;28;20041;-76
2023/12/05 02:08:50;;;;;;;30.10;13.93;;;-3.70;99.90;;;;;;5044219;28;20495;-76
2023/12/05 02:11:16;;;;;;;31.27;14.70;;;-3.70;99.90;;;;;;5041298;28;20017;-76
2023/12/05 02:13:43;;;;;;;35.88;15.02;;;-3.70;99.90;;;;;;5041119;28;20048;-76
2023/12/05 02:16:25;;;;;;;28.60;13.80;;;-3.70;99.90;;;;;;5043980;28;20044;-76
2023/12/05 02:19:33;;;;;;;30.08;13.10;;;-3.70;99.90;;;;;;5048724;28;20020;-76
2023/12/05 02:22:03;;;;;;;29.85;14.13;;;-3.80;99.90;;;;;;5039695;28;20117;-76
2023/12/05 02:24:43;;;;;;;28.77;12.45;;;-3.80;99.90;;;;;;5037182;28;20049;-75
2023/12/05 02:27:27;;;;;;;30.40;14.25;;;-3.80;99.90;;;;;;5046000;28;20047;-76
2023/12/05 02:29:53;;;;;;;25.58;13.32;;;-3.80;99.90;;;;;;5045282;28;20399;-76
2023/12/05 02:32:19;;;;;;;33.50;14.68;;;-3.80;99.90;;;;;;5044446;28;20115;-76
2023/12/05 02:34:45;;;;;;;36.13;15.05;;;-3.80;99.90;;;;;;5039528;28;20104;-76
2023/12/05 02:38:05;;;;;;;32.65;14.70;;;-3.80;99.90;;;;;;5041005;28;20045;-76
2023/12/05 02:40:46;;;;;;;31.50;14.35;;;-3.80;99.90;;;;;;5020275;28;20037;-76
2023/12/05 02:43:16;;;;;;;31.63;14.45;;;-3.80;99.90;;;;;;5038312;28;20095;-76
2023/12/05 02:45:46;;;;;;;30.30;13.48;;;-3.80;99.90;;;;;;5042434;28;20028;-76
2023/12/05 02:48:13;;;;;;;35.90;14.93;;;-3.80;99.90;;;;;;5049529;28;20094;-76
2023/12/05 02:50:39;;;;;;;31.15;14.90;;;-3.80;99.90;;;;;;5044223;28;20589;-76
2023/12/05 02:53:05;;;;;;;32.60;14.93;;;-3.80;99.90;;;;;;5041653;28;20491;-76
2023/12/05 02:55:31;;;;;;;37.83;16.23;;;-3.80;99.90;;;;;;5037319;28;20048;-76
2023/12/05 02:57:57;;;;;;;36.83;14.93;;;-3.80;99.90;;;;;;5046738;28;20021;-76
2023/12/05 03:00:22;;;;;;;35.80;15.70;;;-3.80;99.90;;;;;;5042657;28;20044;-76
2023/12/05 03:02:48;;;;;;;31.02;14.82;;;-3.80;99.90;;;;;;5034854;28;20041;-75
2023/12/05 03:05:17;;;;;;;33.95;14.63;;;-3.70;99.90;;;;;;5039129;28;20031;-75
2023/12/05 03:07:42;;;;;;;35.85;14.05;;;-3.80;99.90;;;;;;5045576;28;20463;-76
2023/12/05 03:10:08;;;;;;;32.17;14.43;;;-3.70;99.90;;;;;;5046100;28;20116;-75
2023/12/05 03:12:34;;;;;;;28.52;13.27;;;-3.70;99.90;;;;;;5042795;28;20047;-75
2023/12/05 03:15:00;;;;;;;36.25;14.73;;;-3.80;99.90;;;;;;5039178;28;20041;-75
2023/12/05 03:17:26;;;;;;;33.88;15.27;;;-3.80;99.90;;;;;;5047859;28;20360;-77
2023/12/05 03:20:11;;;;;;;31.50;14.88;;;-3.70;99.90;;;;;;5048739;28;20522;-76
2023/12/05 03:22:37;;;;;;;28.60;12.60;;;-3.70;99.90;;;;;;5039239;28;20037;-76
2023/12/05 03:25:03;;;;;;;33.38;15.25;;;-3.80;99.90;;;;;;5047689;28;20087;-76
2023/12/05 03:27:28;;;;;;;32.40;14.68;;;-3.80;99.90;;;;;;5042564;28;20037;-76
2023/12/05 03:29:54;;;;;;;30.98;14.35;;;-3.70;99.90;;;;;;5050040;28;20049;-76
2023/12/05 03:32:20;;;;;;;34.67;15.18;;;-3.70;99.90;;;;;;5045641;28;20384;-76
2023/12/05 03:34:48;;;;;;;29.30;14.52;;;-3.70;99.90;;;;;;5041244;28;20067;-76
2023/12/05 03:37:14;;;;;;;31.95;14.27;;;-3.70;99.90;;;;;;5041267;28;20021;-76
2023/12/05 03:39:40;;;;;;;34.72;14.93;;;-3.70;99.90;;;;;;5051850;28;20540;-76
2023/12/05 03:42:05;;;;;;;33.60;14.73;;;-3.70;99.90;;;;;;5040198;28;20105;-76
2023/12/05 03:44:31;;;;;;;32.35;14.15;;;-3.60;99.90;;;;;;5031520;28;20052;-76
2023/12/05 03:46:57;;;;;;;30.40;13.40;;;-3.60;99.90;;;;;;5043082;28;20060;-76
2023/12/05 03:49:23;;;;;;;32.83;14.20;;;-3.60;99.90;;;;;;5045730;28;20044;-76
2023/12/05 03:51:49;;;;;;;30.80;14.50;;;-3.60;99.90;;;;;;5041653;28;20033;-76
2023/12/05 03:54:15;;;;;;;34.03;14.40;;;-3.60;99.90;;;;;;5039251;28;20074;-76
2023/12/05 03:56:41;;;;;;;35.72;14.85;;;-3.60;99.90;;;;;;5040231;28;20041;-76
2023/12/05 03:59:06;;;;;;;29.75;14.60;;;-3.60;99.90;;;;;;5037141;28;20495;-76
2023/12/05 04:01:32;;;;;;;31.65;14.15;;;-3.60;99.90;;;;;;5039701;28;20048;-76
2023/12/05 04:03:58;;;;;;;28.95;14.38;;;-3.60;99.90;;;;;;5047471;28;20034;-76
2023/12/05 04:06:24;;;;;;;35.10;14.02;;;-3.60;99.90;;;;;;5041272;28;20036;-76
2023/12/05 04:08:50;;;;;;;31.83;14.00;;;-3.60;99.90;;;;;;5030591;28;20029;-75
2023/12/05 04:11:16;;;;;;;34.45;14.80;;;-3.60;99.90;;;;;;5042540;28;20128;-76
2023/12/05 04:13:42;;;;;;;32.22;14.15;;;-3.70;99.90;;;;;;5044561;28;20035;-75
2023/12/05 04:16:09;;;;;;;33.40;13.63;;;-3.60;99.90;;;;;;5045816;28;20108;-75
2023/12/05 04:18:35;;;;;;;30.13;13.43;;;-3.60;99.90;;;;;;5045263;28;20092;-76
2023/12/05 04:21:01;;;;;;;33.08;14.32;;;-3.60;99.90;;;;;;5043274;28;20033;-76
2023/12/05 04:23:26;;;;;;;34.28;14.88;;;-3.60;99.90;;;;;;5051211;28;20044;-76
2023/12/05 04:25:52;;;;;;;34.30;14.80;;;-3.60;99.90;;;;;;5047783;28;20124;-76
2023/12/05 04:28:18;;;;;;;33.90;13.57;;;-3.60;99.90;;;;;;5040636;28;20064;-75
2023/12/05 04:30:44;;;;;;;28.05;12.93;;;-3.60;99.90;;;;;;5044699;28;20038;-75
2023/12/05 04:33:10;;;;;;;35.50;14.77;;;-3.60;99.90;;;;;;5037107;28;20052;-75
2023/12/05 04:35:35;;;;;;;34.00;15.32;;;-3.70;99.90;;;;;;5034756;28;20560;-76
2023/12/05 04:38:01;;;;;;;37.60;16.17;;;-3.60;99.90;;;;;;5037364;28;20421;-76
2023/12/05 04:40:27;;;;;;;34.65;15.18;;;-3.60;99.90;;;;;;5037526;28;20179;-76
2023/12/05 04:42:53;;;;;;;34.38;14.77;;;-3.60;99.90;;;;;;5038692;28;20028;-76
2023/12/05 04:45:18;;;;;;;34.03;15.18;;;-3.60;99.90;;;;;;5045562;28;20041;-76
2023/12/05 04:47:47;;;;;;;34.70;16.40;;;-3.60;99.90;;;;;;5041653;28;20124;-76
2023/12/05 04:50:16;;;;;;;37.35;15.70;;;-3.60;99.90;;;;;;5043060;28;20065;-76
2023/12/05 04:52:41;;;;;;;31.30;14.40;;;-3.60;99.90;;;;;;5036573;28;20451;-74
2023/12/05 04:55:10;;;;;;;35.55;15.77;;;-3.60;99.90;;;;;;5034926;28;20045;-74
2023/12/05 04:57:36;;;;;;;33.42;15.85;;;-3.60;99.90;;;;;;5043650;28;20090;-76
2023/12/05 05:00:03;;;;;;;31.52;14.38;;;-3.60;99.90;;;;;;5044585;28;20033;-76
2023/12/05 05:02:28;;;;;;;33.67;14.70;;;-3.60;99.90;;;;;;5044898;28;20033;-74
2023/12/05 05:04:54;;;;;;;31.77;14.77;;;-3.60;99.90;;;;;;5026669;28;20064;-74
2023/12/05 05:07:20;;;;;;;34.58;15.27;;;-3.60;99.90;;;;;;5028152;28;20052;-75
2023/12/05 05:09:45;;;;;;;35.10;15.70;;;-3.60;99.90;;;;;;5028603;28;20029;-75
2023/12/05 05:12:11;;;;;;;34.95;16.05;;;-3.60;99.90;;;;;;5042423;28;20025;-75
2023/12/05 05:14:37;;;;;;;31.45;14.80;;;-3.60;99.90;;;;;;5043448;28;20034;-75
2023/12/05 05:17:08;;;;;;;34.60;15.07;;;-3.60;99.90;;;;;;5044195;28;20637;-75
2023/12/05 05:19:34;;;;;;;32.55;15.25;;;-3.60;99.90;;;;;;5039753;28;20056;-75
2023/12/05 05:22:00;;;;;;;36.95;16.02;;;-3.60;99.90;;;;;;5045608;28;20123;-75
2023/12/05 05:24:26;;;;;;;32.35;15.07;;;-3.50;99.90;;;;;;5045647;28;20029;-74
2023/12/05 05:26:53;;;;;;;35.35;16.30;;;-3.50;99.90;;;;;;5039675;28;20033;-74
2023/12/05 05:29:18;;;;;;;30.48;15.30;;;-3.50;99.90;;;;;;5021886;28;20480;-75
2023/12/05 05:31:44;;;;;;;35.83;14.98;;;-3.50;99.90;;;;;;5038459;28;20036;-75
2023/12/05 05:34:10;;;;;;;35.28;15.50;;;-3.50;99.90;;;;;;5038383;28;20035;-75
2023/12/05 05:36:35;;;;;;;30.88;14.95;;;-3.40;99.90;;;;;;5041314;28;20682;-75
2023/12/05 05:39:01;;;;;;;34.45;15.50;;;-3.40;99.90;;;;;;5044602;28;20104;-75
2023/12/05 05:41:27;;;;;;;33.83;15.18;;;-3.40;99.90;;;;;;5043670;28;20538;-75
2023/12/05 05:43:53;;;;;;;33.20;15.10;;;-3.40;99.90;;;;;;5042676;28;20044;-74
2023/12/05 05:46:19;;;;;;;38.22;16.75;;;-3.40;99.90;;;;;;5042481;28;20029;-74
2023/12/05 05:48:44;;;;;;;32.25;15.43;;;-3.40;99.90;;;;;;5041696;28;20033;-74
2023/12/05 05:51:10;;;;;;;35.47;15.63;;;-3.40;99.90;;;;;;5043495;28;20112;-74
2023/12/05 05:53:39;;;;;;;34.80;15.20;;;-3.40;99.90;;;;;;5041602;28;20024;-74
2023/12/05 05:56:05;;;;;;;35.22;14.63;;;-3.30;99.90;;;;;;5025793;28;20079;-75
2023/12/05 05:58:31;;;;;;;39.55;15.98;;;-3.40;99.90;;;;;;5046177;28;20047;-75
2023/12/05 06:00:56;;;;;;;36.08;16.00;;;-3.40;99.90;;;;;;5048180;28;20085;-75
2023/12/05 06:03:23;;;;;;;34.42;15.73;;;-3.40;99.90;;;;;;5050793;28;20064;-75
2023/12/05 06:05:48;;;;;;;34.70;15.90;;;-3.40;99.90;;;;;;5045337;28;20557;-75
2023/12/05 06:08:14;;;;;;;38.85;16.10;;;-3.40;99.90;;;;;;5046088;28;20041;-75
2023/12/05 06:10:40;;;;;;;36.25;15.75;;;-3.40;99.90;;;;;;5047522;28;20094;-75
2023/12/05 06:13:05;;;;;;;33.05;14.80;;;-3.40;99.90;;;;;;5046891;28;20120;-75
2023/12/05 06:15:31;;;;;;;36.05;16.17;;;-3.40;99.90;;;;;;5049079;28;20039;-75
2023/12/05 06:17:57;;;;;;;33.00;16.10;;;-3.40;99.90;;;;;;5048447;28;20044;-75
2023/12/05 06:20:23;;;;;;;40.78;17.13;;;-3.40;99.90;;;;;;5048335;28;20502;-75
2023/12/05 06:22:49;;;;;;;38.95;16.45;;;-3.40;99.90;;;;;;5045421;28;20065;-75
2023/12/05 06:25:15;;;;;;;35.15;15.88;;;-3.40;99.90;;;;;;5045463;28;20068;-75
2023/12/05 06:27:41;;;;;;;33.83;15.88;;;-3.40;99.90;;;;;;5042013;28;20040;-75
2023/12/05 06:30:07;;;;;;;36.10;15.77;;;-3.40;99.90;;;;;;5044028;28;20513;-75
2023/12/05 06:32:33;;;;;;;35.13;15.55;;;-3.40;99.90;;;;;;5038796;28;20426;-75
2023/12/05 06:34:59;;;;;;;36.50;16.38;;;-3.40;99.90;;;;;;5043578;28;20024;-75
2023/12/05 06:37:25;;;;;;;37.00;16.63;;;-3.50;99.90;;;;;;5044161;28;20910;-75
2023/12/05 06:39:51;;;;;;;34.83;15.45;;;-3.50;99.90;;;;;;5046821;28;20090;-75
2023/12/05 06:42:17;;;;;;;33.30;15.60;;;-3.50;99.90;;;;;;5048509;28;20029;-75
2023/12/05 06:44:43;;;;;;;35.47;15.32;;;-3.50;99.90;;;;;;5044807;28;20082;-75
2023/12/05 06:47:09;;;;;;;35.95;15.63;;;-3.50;99.90;;;;;;5045309;28;20691;-75
2023/12/05 06:49:35;;;;;;;40.22;17.67;;;-3.50;99.90;;;;;;5045035;28;20112;-75
2023/12/05 06:52:02;;;;;;;38.67;17.75;;;-3.50;99.90;;;;;;5040073;28;20033;-75
2023/12/05 06:54:28;;;;;;;37.17;16.30;;;-3.50;99.90;;;;;;5038998;28;20033;-75
2023/12/05 06:56:54;;;;;;;34.17;15.85;;;-3.40;99.90;;;;;;5043151;28;20525;-76
2023/12/05 06:59:20;;;;;;;35.03;16.25;;;-3.40;99.90;;;;;;5051573;28;20025;-75
2023/12/05 07:01:46;;;;;;;31.75;15.02;;;-3.40;99.90;;;;;;5045162;28;20063;-75
2023/12/05 07:04:13;;;;;;;31.85;15.23;;;-3.40;99.90;;;;;;5046915;28;20669;-75
2023/12/05 07:06:38;;;;;;;33.70;16.08;;;-3.40;99.90;;;;;;5043854;28;20072;-74
2023/12/05 07:09:05;;;;;;;36.80;16.27;;;-3.40;99.90;;;;;;5050740;28;20056;-73
2023/12/05 07:11:31;;;;;;;33.70;15.35;;;-3.40;99.90;;;;;;5039981;28;20049;-74
2023/12/05 07:13:57;;;;;;;33.40;16.00;;;-3.40;99.90;;;;;;5043481;28;20095;-75
2023/12/05 07:16:23;;;;;;;33.38;15.60;;;-3.40;99.90;;;;;;5044602;28;20055;-75
2023/12/05 07:18:49;;;;;;;35.13;16.67;;;-3.40;99.90;;;;;;5044414;28;20406;-74
2023/12/05 07:21:15;;;;;;;37.92;15.60;;;-3.40;99.90;;;;;;5042364;28;20021;-75
2023/12/05 07:23:41;;;;;;;35.05;16.15;;;-3.30;99.90;;;;;;5044093;28;20090;-75
2023/12/05 07:26:07;;;;;;;41.65;17.38;;;-3.30;99.90;;;;;;5044237;28;20064;-74
2023/12/05 07:28:33;;;;;;;34.65;15.82;;;-3.30;99.90;;;;;;5045445;28;20486;-74
2023/12/05 07:30:59;;;;;;;36.15;16.20;;;-3.20;99.90;;;;;;5047613;28;20023;-75
2023/12/05 07:33:25;;;;;;;37.75;17.38;;;-3.20;99.90;;;;;;5043123;28;20033;-74
2023/12/05 07:35:51;;;;;;;36.38;16.67;;;-3.20;99.90;;;;;;5043432;28;20041;-74
2023/12/05 07:38:16;;;;;;;32.65;15.35;;;-3.20;99.90;;;;;;5047565;28;20068;-74
2023/12/05 07:40:42;;;;;;;39.60;18.08;;;-3.20;99.90;;;;;;5043740;28;20411;-75
2023/12/05 07:43:08;;;;;;;33.75;16.73;;;-3.20;99.90;;;;;;5041925;28;20040;-75
2023/12/05 07:45:34;;;;;;;34.45;15.90;;;-3.10;99.90;;;;;;5041084;28;20029;-75
2023/12/05 07:48:00;;;;;;;35.92;16.98;;;-3.10;99.90;;;;;;5011869;28;20038;-74
2023/12/05 07:50:25;;;;;;;36.42;16.90;;;-3.10;99.90;;;;;;5041094;28;20029;-75
2023/12/05 07:52:51;;;;;;;37.53;16.45;;;-3.10;99.90;;;;;;5036723;28;20112;-75
2023/12/05 07:55:18;;;;;;;32.33;16.52;;;-3.10;99.90;;;;;;5041086;28;20021;-74
2023/12/05 07:57:46;;;;;;;35.70;15.38;;;-3.10;99.90;;;;;;5039523;28;20044;-75
2023/12/05 08:00:16;;;;;;;35.17;16.55;;;-3.10;99.90;;;;;;5044970;28;20034;-75
2023/12/05 08:02:46;;;;;;;34.35;16.48;;;-3.00;99.90;;;;;;5052918;28;20048;-75
2023/12/05 08:05:13;;;;;;;40.17;16.17;;;-3.00;99.90;;;;;;5047612;28;20017;-74
2023/12/05 08:07:39;;;;;;;35.03;16.13;;;-2.90;99.90;;;;;;5045567;28;20040;-75
2023/12/05 08:10:06;;;;;;;38.63;17.45;;;-2.90;99.90;;;;;;5040337;28;20041;-74
2023/12/05 08:12:32;;;;;;;36.30;16.83;;;-2.90;99.90;;;;;;5042484;28;20107;-74
2023/12/05 08:14:57;;;;;;;35.50;16.42;;;-2.90;99.90;;;;;;5026333;28;20068;-73
2023/12/05 08:17:23;;;;;;;37.97;17.67;;;-2.90;99.90;;;;;;5042473;28;20047;-76
2023/12/05 08:19:49;;;;;;;39.90;17.60;;;-2.80;99.90;;;;;;5046704;28;20075;-76
2023/12/05 08:22:14;;;;;;;36.58;17.25;;;-2.80;99.90;;;;;;5046801;28;20029;-75
2023/12/05 08:24:41;;;;;;;34.63;16.13;;;-2.80;99.90;;;;;;5044798;28;20025;-76
2023/12/05 08:27:06;;;;;;;35.30;17.75;;;-2.70;99.90;;;;;;5042969;28;20033;-73
2023/12/05 08:29:32;;;;;;;39.92;18.27;;;-2.70;99.90;;;;;;5047073;28;20410;-73
2023/12/05 08:31:58;;;;;;;38.13;17.80;;;-2.70;99.90;;;;;;5046047;28;20037;-73
2023/12/05 08:34:25;;;;;;;35.78;17.65;;;-2.70;99.90;;;;;;5044568;28;20044;-72
2023/12/05 08:36:50;;;;;;;37.70;17.80;;;-2.60;99.90;;;;;;5042242;28;20033;-73
2023/12/05 08:39:17;;;;;;;35.17;17.42;;;-2.60;99.90;;;;;;5052924;28;20029;-72
2023/12/05 08:41:42;;;;;;;34.45;17.40;;;-2.60;99.90;;;;;;5043577;28;20037;-73
2023/12/05 08:44:08;;;;;;;37.67;17.25;;;-2.60;99.90;;;;;;5044221;28;20031;-73
2023/12/05 08:46:35;;;;;;;34.65;17.63;;;-2.50;99.90;;;;;;5042459;28;20047;-73
2023/12/05 08:49:01;;;;;;;40.25;17.50;;;-2.50;99.90;;;;;;5046361;28;20146;-75
2023/12/05 08:51:26;;;;;;;38.35;17.90;;;-2.50;99.90;;;;;;5045690;28;20578;-73
2023/12/05 08:53:52;;;;;;;37.90;17.70;;;-2.50;99.90;;;;;;5047050;28;20037;-72
2023/12/05 08:56:18;;;;;;;36.75;18.02;;;-2.40;99.90;;;;;;5008749;28;20037;-73
2023/12/05 08:58:44;;;;;;;38.40;19.02;;;-2.40;99.90;;;;;;5047532;28;20021;-73
2023/12/05 09:01:11;;;;;;;35.83;17.10;;;-2.40;99.90;;;;;;5044781;28;20041;-73
2023/12/05 09:03:37;;;;;;;36.40;17.73;;;-2.30;99.90;;;;;;5047465;28;20029;-73
2023/12/05 09:06:03;;;;;;;34.50;17.40;;;-2.30;99.90;;;;;;5045203;28;20041;-75
2023/12/05 09:08:29;;;;;;;37.63;18.23;;;-2.30;99.90;;;;;;5047785;28;20383;-73
2023/12/05 09:10:57;;;;;;;39.53;17.05;;;-2.20;99.90;;;;;;5044889;28;20078;-75
2023/12/05 09:13:25;;;;;;;42.50;18.55;;;-2.10;99.90;;;;;;5041887;28;20124;-72
2023/12/05 09:15:51;;;;;;;35.38;17.67;;;-2.10;99.90;;;;;;5040299;28;20028;-75
2023/12/05 09:18:17;;;;;;;38.70;17.83;;;-2.10;99.90;;;;;;5041812;28;20033;-72
2023/12/05 09:20:42;;;;;;;37.88;18.35;;;-2.00;99.90;;;;;;5039633;28;20029;-72
2023/12/05 09:23:08;;;;;;;36.85;18.85;;;-2.00;99.90;;;;;;5037801;28;20041;-75
2023/12/05 09:25:34;;;;;;;39.75;18.88;;;-1.90;99.90;;;;;;5035166;28;20061;-74
2023/12/05 09:28:00;;;;;;;40.42;18.83;;;-1.90;99.90;;;;;;5037780;28;20106;-74
2023/12/05 09:30:26;;;;;;;40.55;19.73;;;-1.80;99.90;;;;;;5042919;28;20667;-75
2023/12/05 09:32:51;;;;;;;38.33;18.98;;;-1.80;99.90;;;;;;5042679;28;20372;-74
2023/12/05 09:35:17;;;;;;;39.33;18.83;;;-1.70;99.90;;;;;;5045939;28;20039;-75
2023/12/05 09:37:43;;;;;;;38.60;18.65;;;-1.70;99.90;;;;;;5026037;28;20047;-73
2023/12/05 09:40:09;;;;;;;35.50;19.60;;;-1.70;99.90;;;;;;5042114;28;20033;-73
2023/12/05 09:42:36;;;;;;;39.80;19.80;;;-1.60;99.90;;;;;;5038413;28;20128;-74
2023/12/05 09:45:10;;;;;;;35.53;18.88;;;-1.60;99.90;;;;;;5034506;28;21455;-73
2023/12/05 09:47:36;;;;;;;34.60;18.65;;;-1.50;99.90;;;;;;5042924;28;20048;-73
2023/12/05 09:50:05;;;;;;;41.00;19.40;;;-1.50;99.90;;;;;;5037651;28;20038;-74
2023/12/05 09:52:31;;;;;;;33.83;17.98;;;-1.50;99.90;;;;;;5038783;28;20647;-73
2023/12/05 09:54:58;;;;;;;37.72;19.30;;;-1.40;99.90;;;;;;5028791;28;20742;-74
2023/12/05 09:57:25;;;;;;;39.08;18.83;;;-1.40;99.90;;;;;;5041130;28;20388;-74
2023/12/05 09:59:50;;;;;;;37.53;18.33;;;-1.40;99.90;;;;;;5041956;28;20120;-75
2023/12/05 10:02:19;;;;;;;40.30;19.02;;;-1.40;99.90;;;;;;5036523;28;20125;-75
2023/12/05 10:04:45;;;;;;;36.75;19.33;;;-1.40;99.90;;;;;;5032296;28;20033;-74
2023/12/05 10:07:11;;;;;;;40.55;20.20;;;-1.30;99.90;;;;;;5035463;28;20028;-74
2023/12/05 10:09:40;;;;;;;37.30;18.48;;;-1.30;99.90;;;;;;5041448;28;20095;-74
2023/12/05 10:12:08;;;;;;;39.72;19.02;;;-1.20;99.90;;;;;;5024366;28;20537;-74
2023/12/05 10:14:34;;;;;;;42.63;21.75;;;-1.20;99.90;;;;;;5043463;28;20032;-74
2023/12/05 10:17:02;;;;;;;40.00;19.88;;;-1.20;99.90;;;;;;5007874;28;20102;-74
2023/12/05 10:19:29;;;;;;;42.08;19.75;;;-1.10;99.90;;;;;;5043416;28;20037;-74
2023/12/05 10:21:56;;;;;;;39.65;20.30;;;-1.10;99.90;;;;;;5038256;28;20037;-74
2023/12/05 10:24:22;;;;;;;61.22;30.50;;;-1.00;99.90;;;;;;5027606;28;20532;-74
2023/12/05 10:26:49;;;;;;;46.10;21.30;;;-0.90;99.90;;;;;;5035713;28;20187;-73
2023/12/05 10:29:20;;;;;;;42.75;20.55;;;-0.90;99.90;;;;;;5042339;28;20060;-74
2023/12/05 10:31:46;;;;;;;41.63;20.42;;;-0.80;99.90;;;;;;5041140;28;20040;-74
2023/12/05 10:34:12;;;;;;;42.03;21.48;;;-0.80;99.90;;;;;;5039508;28;20772;-74
2023/12/05 10:36:37;;;;;;;44.55;20.98;;;-0.70;99.90;;;;;;5039185;28;20033;-74
2023/12/05 10:39:05;;;;;;;43.70;21.95;;;-0.70;99.90;;;;;;5042222;28;20072;-74
2023/12/05 10:41:31;;;;;;;39.33;20.88;;;-0.60;99.90;;;;;;5035153;28;20487;-74
2023/12/05 10:43:57;;;;;;;42.08;20.58;;;-0.60;99.90;;;;;;5036642;28;20036;-74
2023/12/05 10:46:27;;;;;;;36.05;19.40;;;-0.50;99.90;;;;;;5037623;28;20024;-74
2023/12/05 10:48:54;;;;;;;40.95;20.55;;;-0.50;99.90;;;;;;5042635;28;20032;-74
2023/12/05 10:51:24;;;;;;;38.58;19.70;;;-0.40;99.90;;;;;;5039104;28;20438;-73
2023/12/05 10:53:49;;;;;;;41.63;21.08;;;-0.40;99.90;;;;;;5027246;28;20041;-73
2023/12/05 10:56:16;;;;;;;39.90;20.85;;;-0.40;99.90;;;;;;5042142;28;20021;-74
2023/12/05 10:58:43;;;;;;;43.42;21.25;;;-0.40;99.90;;;;;;5042539;28;20036;-73
2023/12/05 11:01:13;;;;;;;39.97;20.20;;;-0.40;99.90;;;;;;5045833;28;20040;-73
2023/12/05 11:03:41;;;;;;;36.78;19.83;;;-0.40;99.90;;;;;;5035308;28;20509;-72
2023/12/05 11:06:08;;;;;;;33.97;17.52;;;-0.40;99.90;;;;;;5041938;28;20033;-73
2023/12/05 11:08:35;;;;;;;38.78;20.15;;;-0.40;99.90;;;;;;5066095;28;20100;-73
2023/12/05 11:11:05;;;;;;;42.53;20.95;;;-0.40;99.90;;;;;;5038929;28;20162;-72
2023/12/05 11:13:33;;;;;;;36.45;19.83;;;-0.40;99.90;;;;;;5031414;28;20025;-73
2023/12/05 11:16:30;;;;;;;37.13;19.00;;;-0.40;99.90;;;;;;5041806;28;20072;-73
2023/12/05 11:19:19;;;;;;;37.40;18.65;;;-0.30;99.90;;;;;;5043098;28;20045;-72
2023/12/05 11:22:09;;;;;;;36.50;18.50;;;-0.30;99.90;;;;;;5037926;28;20029;-73
2023/12/05 11:24:56;;;;;;;38.15;19.38;;;-0.20;99.90;;;;;;5052427;28;20025;-73
2023/12/05 11:27:40;;;;;;;35.45;20.00;;;-0.20;99.90;;;;;;5035273;28;20025;-72
2023/12/05 11:30:50;;;;;;;36.22;20.13;;;-0.10;99.90;;;;;;5043578;28;20116;-73
2023/12/05 11:33:37;;;;;;;40.22;19.77;;;0.00;99.90;;;;;;5036665;28;20128;-73
2023/12/05 11:36:24;;;;;;;40.63;21.60;;;0.00;99.90;;;;;;5036684;28;20643;-73
2023/12/05 11:38:50;;;;;;;38.00;19.45;;;0.10;99.90;;;;;;5044721;28;20545;-73
2023/12/05 11:41:20;;;;;;;40.60;21.40;;;0.10;99.90;;;;;;5032518;28;20376;-73
2023/12/05 11:44:11;;;;;;;42.33;19.50;;;0.10;99.90;;;;;;5035152;28;20120;-73
2023/12/05 11:46:37;;;;;;;39.60;20.08;;;0.10;99.90;;;;;;5035815;28;20069;-72
2023/12/05 11:49:03;;;;;;;34.83;20.48;;;0.10;99.90;;;;;;5037591;28;20546;-73
2023/12/05 11:51:33;;;;;;;40.70;20.70;;;0.20;99.90;;;;;;5023282;28;20148;-73
2023/12/05 11:54:02;;;;;;;37.85;20.08;;;0.20;99.90;;;;;;5037317;28;20476;-73
2023/12/05 11:56:30;;;;;;;39.63;20.50;;;0.20;99.90;;;;;;5038452;28;20017;-73
2023/12/05 11:59:14;;;;;;;37.90;20.17;;;0.20;99.90;;;;;;5040674;28;20029;-73
2023/12/05 12:01:43;;;;;;;36.17;19.67;;;0.20;99.90;;;;;;5035622;28;20483;-74
2023/12/05 12:04:22;;;;;;;36.45;19.10;;;0.20;99.90;;;;;;5041224;28;20486;-73
2023/12/05 12:06:50;;;;;;;40.17;20.55;;;0.20;99.90;;;;;;5040155;28;20029;-73
2023/12/05 12:09:16;;;;;;;37.72;19.00;;;0.20;99.90;;;;;;5038118;28;21000;-73
2023/12/05 12:11:43;;;;;;;36.83;20.45;;;0.20;99.90;;;;;;5039452;28;20025;-72
2023/12/05 12:14:16;;;;;;;41.88;21.02;;;0.20;99.90;;;;;;5037424;28;20034;-74
2023/12/05 12:16:43;;;;;;;39.80;21.10;;;0.10;99.90;;;;;;5033088;28;20528;-74
2023/12/05 12:19:11;;;;;;;41.83;20.83;;;0.20;99.90;;;;;;5038514;28;20025;-73
2023/12/05 12:21:40;;;;;;;38.78;21.05;;;0.20;99.90;;;;;;5033504;28;20048;-73
2023/12/05 12:24:19;;;;;;;41.40;21.60;;;0.20;99.90;;;;;;5035271;28;20104;-73
2023/12/05 12:26:56;;;;;;;43.35;21.83;;;0.30;99.90;;;;;;5033316;28;20025;-73
2023/12/05 12:29:23;;;;;;;39.28;20.40;;;0.30;99.90;;;;;;5044295;28;20031;-73
2023/12/05 12:31:52;;;;;;;38.03;20.10;;;0.40;99.90;;;;;;5038262;28;20048;-73